Time;durP1;ratioP1;P1;durP2;ratioP2;P2;SDS_P1;SDS_P2;PMS_P1;PMS_P2;Temp;Humidity;BMP_temperature;BMP_pressure;BME280_temperature;BME280_humidity;BME280_pressure;Samples;Min_cycle;Max_cycle;Signal;HPM_P1;HPM_P2
2021/11/30 00:01:09;;;;;;;13.13;6.15;;;;;;;;;;5054868;28;20033;-52
2021/11/30 00:03:35;;;;;;;16.42;6.60;;;;;;;;;;5055624;28;20056;-56
2021/11/30 00:06:02;;;;;;;13.05;6.05;;;;;;;;;;5055817;28;20442;-54
2021/11/30 00:08:31;;;;;;;12.75;6.32;;;;;;;;;;5052778;28;20457;-57
2021/11/30 00:10:58;;;;;;;14.05;6.53;;;;;;;;;;5052473;28;20033;-57
2021/11/30 00:13:25;;;;;;;12.85;7.15;;;;;;;;;;5056568;28;20082;-58
2021/11/30 00:15:52;;;;;;;12.75;6.53;;;;;;;;;;5055596;28;20109;-57
2021/11/30 00:18:18;;;;;;;15.02;6.93;;;;;;;;;;5050006;28;20047;-58
2021/11/30 00:20:44;;;;;;;14.82;7.07;;;;;;;;;;5052457;28;20469;-57
2021/11/30 00:23:11;;;;;;;16.45;7.03;;;;;;;;;;5054632;28;20104;-56
2021/11/30 00:25:37;;;;;;;13.48;7.20;;;;;;;;;;5057611;28;20587;-58
2021/11/30 00:28:04;;;;;;;12.70;6.07;;;;;;;;;;5049831;28;20028;-52
2021/11/30 00:30:32;;;;;;;11.82;7.15;;;;;;;;;;5054035;28;20063;-57
2021/11/30 00:32:58;;;;;;;14.02;6.32;;;;;;;;;;5050589;28;20119;-57
2021/11/30 00:35:24;;;;;;;11.77;5.78;;;;;;;;;;5048164;28;20041;-56
2021/11/30 00:37:50;;;;;;;10.75;5.68;;;;;;;;;;5043557;28;20080;-54
2021/11/30 00:40:17;;;;;;;11.40;6.25;;;;;;;;;;5058219;28;20025;-52
2021/11/30 00:42:43;;;;;;;12.48;5.78;;;;;;;;;;5054508;28;20025;-55
2021/11/30 00:45:14;;;;;;;11.00;5.80;;;;;;;;;;5050525;28;20428;-55
2021/11/30 00:47:46;;;;;;;10.77;5.85;;;;;;;;;;5055438;28;20028;-56
2021/11/30 00:50:13;;;;;;;12.70;5.78;;;;;;;;;;5057923;28;20447;-57
2021/11/30 00:52:39;;;;;;;12.75;6.07;;;;;;;;;;5052563;28;20536;-55
2021/11/30 00:55:05;;;;;;;13.07;6.57;;;;;;;;;;5049422;28;20101;-54
2021/11/30 00:57:31;;;;;;;16.20;6.82;;;;;;;;;;5054860;28;20151;-55
2021/11/30 00:59:57;;;;;;;15.38;6.75;;;;;;;;;;5054594;28;20068;-56
2021/11/30 01:02:23;;;;;;;14.05;7.15;;;;;;;;;;5057030;28;20029;-57
2021/11/30 01:04:50;;;;;;;12.95;6.78;;;;;;;;;;5056295;28;20111;-56
2021/11/30 01:07:16;;;;;;;15.30;7.07;;;;;;;;;;5053696;28;20160;-58
2021/11/30 01:09:42;;;;;;;12.63;6.43;;;;;;;;;;5052974;28;20032;-57
2021/11/30 01:12:09;;;;;;;14.73;6.65;;;;;;;;;;5047612;28;20040;-57
2021/11/30 01:14:35;;;;;;;14.73;6.25;;;;;;;;;;5044802;28;20029;-55
2021/11/30 01:17:01;;;;;;;19.38;7.70;;;;;;;;;;5052779;28;20032;-57
2021/11/30 01:19:28;;;;;;;14.93;7.65;;;;;;;;;;5051335;28;20510;-58
2021/11/30 01:21:54;;;;;;;15.38;6.75;;;;;;;;;;5052387;28;20112;-58
2021/11/30 01:24:20;;;;;;;16.80;7.47;;;;;;;;;;5054070;28;20133;-58
2021/11/30 01:26:46;;;;;;;15.35;6.75;;;;;;;;;;5047977;28;20525;-58
2021/11/30 01:29:12;;;;;;;16.88;7.75;;;;;;;;;;5050796;28;20121;-58
2021/11/30 01:31:38;;;;;;;16.80;7.10;;;;;;;;;;5050292;28;20408;-55
2021/11/30 01:34:04;;;;;;;15.40;7.80;;;;;;;;;;5049981;28;20124;-56
2021/11/30 01:36:30;;;;;;;16.13;7.05;;;;;;;;;;5057060;28;20049;-56
2021/11/30 01:39:00;;;;;;;16.65;7.22;;;;;;;;;;5056941;28;20376;-53
2021/11/30 01:41:26;;;;;;;17.80;8.40;;;;;;;;;;5059844;28;20112;-55
2021/11/30 01:43:53;;;;;;;17.25;7.05;;;;;;;;;;5066976;28;20119;-57
2021/11/30 01:46:40;;;;;;;16.98;8.10;;;;;;;;;;5060600;28;20469;-57
2021/11/30 01:51:33;;;;;;;14.88;7.40;;;;;;;;;;5057547;28;20044;-57
2021/11/30 01:53:59;;;;;;;16.52;7.95;;;;;;;;;;5051430;28;20029;-57
2021/11/30 01:56:25;;;;;;;15.85;7.78;;;;;;;;;;5051553;28;20036;-56
2021/11/30 01:58:52;;;;;;;16.75;7.68;;;;;;;;;;5050990;28;20549;-57
2021/11/30 02:01:18;;;;;;;16.92;7.70;;;;;;;;;;5058143;28;20028;-53
2021/11/30 02:03:44;;;;;;;15.93;8.07;;;;;;;;;;5061004;28;20033;-54
2021/11/30 02:06:10;;;;;;;18.25;8.55;;;;;;;;;;5062663;28;20532;-57
2021/11/30 02:08:36;;;;;;;16.45;8.48;;;;;;;;;;5058748;28;20107;-57
2021/11/30 02:11:03;;;;;;;18.52;9.57;;;;;;;;;;5042149;28;20068;-55
2021/11/30 02:13:29;;;;;;;17.60;8.45;;;;;;;;;;5045611;28;20040;-57
2021/11/30 02:15:56;;;;;;;14.90;8.15;;;;;;;;;;5053999;28;20025;-54
2021/11/30 02:18:23;;;;;;;18.20;8.52;;;;;;;;;;5043239;28;20021;-52
2021/11/30 02:20:50;;;;;;;17.13;8.48;;;;;;;;;;5048459;28;20036;-52
2021/11/30 02:23:37;;;;;;;21.23;9.65;;;;;;;;;;5055009;28;20032;-53
2021/11/30 02:26:07;;;;;;;22.65;9.07;;;;;;;;;;5047272;28;20029;-53
2021/11/30 02:28:33;;;;;;;18.95;9.38;;;;;;;;;;5048611;28;20472;-55
2021/11/30 02:30:59;;;;;;;19.38;8.43;;;;;;;;;;5037729;28;20057;-57
2021/11/30 02:33:25;;;;;;;24.55;10.07;;;;;;;;;;5049084;28;20090;-53
2021/11/30 02:35:52;;;;;;;18.45;8.65;;;;;;;;;;5049495;28;20477;-55
2021/11/30 02:38:18;;;;;;;23.02;9.82;;;;;;;;;;5043972;28;20026;-55
2021/11/30 02:40:44;;;;;;;22.55;10.48;;;;;;;;;;5051764;28;20102;-57
2021/11/30 02:43:10;;;;;;;18.80;9.88;;;;;;;;;;5051313;28;20033;-56
2021/11/30 02:45:36;;;;;;;18.55;9.18;;;;;;;;;;5054529;28;20036;-56
2021/11/30 02:48:02;;;;;;;23.33;10.68;;;;;;;;;;5051629;28;20029;-54
2021/11/30 02:50:37;;;;;;;22.60;9.85;;;;;;;;;;5051910;28;20036;-56
2021/11/30 02:53:03;;;;;;;19.73;9.80;;;;;;;;;;5048855;28;20436;-54
2021/11/30 02:55:29;;;;;;;24.02;10.63;;;;;;;;;;5048704;28;20496;-55
2021/11/30 02:57:55;;;;;;;20.17;9.40;;;;;;;;;;5044380;28;20033;-55
2021/11/30 03:00:22;;;;;;;21.08;10.57;;;;;;;;;;5047596;28;20028;-55
2021/11/30 03:02:48;;;;;;;21.00;10.30;;;;;;;;;;5050376;28;20432;-54
2021/11/30 03:05:14;;;;;;;23.02;10.73;;;;;;;;;;5051711;28;20029;-53
2021/11/30 03:07:41;;;;;;;23.20;9.75;;;;;;;;;;5043133;28;20025;-52
2021/11/30 03:10:08;;;;;;;27.30;10.75;;;;;;;;;;5047352;28;20376;-53
2021/11/30 03:12:34;;;;;;;22.77;10.43;;;;;;;;;;5047167;28;20039;-53
2021/11/30 03:15:06;;;;;;;23.45;10.98;;;;;;;;;;5048765;28;20112;-56
2021/11/30 03:17:32;;;;;;;23.42;11.23;;;;;;;;;;5042902;28;20676;-56
2021/11/30 03:19:58;;;;;;;19.73;9.50;;;;;;;;;;5039993;28;20061;-52
2021/11/30 03:22:24;;;;;;;22.35;9.90;;;;;;;;;;5045913;28;20017;-52
2021/11/30 03:24:50;;;;;;;22.40;10.73;;;;;;;;;;5046098;28;20075;-54
2021/11/30 03:27:16;;;;;;;21.55;9.65;;;;;;;;;;5047946;28;20477;-55
2021/11/30 03:29:42;;;;;;;19.48;10.05;;;;;;;;;;5041740;28;20409;-55
2021/11/30 03:35:07;;;;;;;20.70;9.43;;;;;;;;;;5053595;28;20045;-53
2021/11/30 03:37:34;;;;;;;20.88;10.07;;;;;;;;;;5045162;28;20028;-56
2021/11/30 03:40:00;;;;;;;23.02;10.80;;;;;;;;;;5049164;28;20471;-51
2021/11/30 03:42:26;;;;;;;22.33;10.00;;;;;;;;;;5052404;28;20044;-56
2021/11/30 03:44:53;;;;;;;21.05;10.07;;;;;;;;;;5048555;28;20106;-56
2021/11/30 03:47:19;;;;;;;20.48;10.18;;;;;;;;;;5051249;28;20040;-57
2021/11/30 03:49:45;;;;;;;20.63;10.32;;;;;;;;;;5050910;28;20558;-53
2021/11/30 03:52:11;;;;;;;18.73;8.98;;;;;;;;;;5051116;28;20033;-56
2021/11/30 03:54:37;;;;;;;19.65;10.25;;;;;;;;;;5051532;28;20037;-57
2021/11/30 03:57:04;;;;;;;20.40;8.93;;;;;;;;;;5042004;28;20528;-57
2021/11/30 03:59:30;;;;;;;25.15;9.35;;;;;;;;;;5046613;28;20032;-55
2021/11/30 04:01:56;;;;;;;20.63;9.55;;;;;;;;;;5045221;28;20025;-52
2021/11/30 04:04:23;;;;;;;16.92;8.98;;;;;;;;;;5047559;28;20036;-55
2021/11/30 04:06:53;;;;;;;16.75;8.57;;;;;;;;;;5048931;28;20036;-55
2021/11/30 04:09:20;;;;;;;20.08;9.38;;;;;;;;;;5050029;28;20059;-53
2021/11/30 04:11:46;;;;;;;18.85;9.68;;;;;;;;;;5038073;28;20033;-56
2021/11/30 04:14:12;;;;;;;17.45;8.52;;;;;;;;;;5046719;28;20154;-56
2021/11/30 04:16:38;;;;;;;15.52;7.63;;;;;;;;;;5046593;28;20683;-57
2021/11/30 04:19:04;;;;;;;17.83;8.73;;;;;;;;;;5045374;28;20112;-56
2021/11/30 04:21:30;;;;;;;19.17;8.65;;;;;;;;;;5044579;28;20466;-55
2021/11/30 04:23:57;;;;;;;16.42;8.43;;;;;;;;;;5049307;28;20044;-52
2021/11/30 04:26:23;;;;;;;17.67;8.77;;;;;;;;;;5042621;28;20029;-54
2021/11/30 04:28:49;;;;;;;16.95;7.97;;;;;;;;;;5043698;28;20469;-55
2021/11/30 04:31:15;;;;;;;18.95;7.70;;;;;;;;;;5036471;28;20099;-58
2021/11/30 04:33:41;;;;;;;17.55;8.38;;;;;;;;;;5044059;28;20480;-55
2021/11/30 04:36:07;;;;;;;17.05;8.80;;;;;;;;;;5051217;28;20098;-57
2021/11/30 04:38:34;;;;;;;17.55;8.10;;;;;;;;;;5050121;28;20035;-56
2021/11/30 04:41:01;;;;;;;18.98;8.48;;;;;;;;;;5053863;28;20018;-54
2021/11/30 04:43:34;;;;;;;17.48;8.07;;;;;;;;;;5064935;28;20487;-53
2021/11/30 04:46:02;;;;;;;;;;;;;;;;;;5059228;28;20575;-52
2021/11/30 04:48:29;;;;;;;16.60;7.40;;;;;;;;;;5049827;28;20340;-52
2021/11/30 04:50:57;;;;;;;19.67;7.90;;;;;;;;;;5052559;28;20033;-52
2021/11/30 04:53:26;;;;;;;19.75;7.88;;;;;;;;;;5053292;28;20035;-52
2021/11/30 04:55:52;;;;;;;17.88;7.25;;;;;;;;;;5052148;28;20029;-55
2021/11/30 04:58:19;;;;;;;16.80;8.07;;;;;;;;;;5052821;28;20021;-57
2021/11/30 05:00:46;;;;;;;16.98;6.97;;;;;;;;;;5051516;28;20026;-56
2021/11/30 05:03:12;;;;;;;13.57;6.65;;;;;;;;;;5054004;28;20384;-56
2021/11/30 05:05:39;;;;;;;15.13;7.93;;;;;;;;;;5055635;28;20033;-56
2021/11/30 05:08:05;;;;;;;15.18;7.35;;;;;;;;;;5048724;28;20127;-55
2021/11/30 05:10:31;;;;;;;16.40;7.72;;;;;;;;;;5055013;28;20037;-55
2021/11/30 05:12:57;;;;;;;18.23;8.05;;;;;;;;;;5052624;28;20040;-57
2021/11/30 05:15:23;;;;;;;15.73;7.50;;;;;;;;;;5051562;28;20078;-56
2021/11/30 05:17:49;;;;;;;15.45;7.53;;;;;;;;;;5053118;28;20107;-56
2021/11/30 05:20:15;;;;;;;18.13;7.95;;;;;;;;;;5054980;28;20021;-56
2021/11/30 05:22:42;;;;;;;18.02;7.47;;;;;;;;;;5054716;28;20032;-52
2021/11/30 05:25:08;;;;;;;19.23;8.18;;;;;;;;;;5048776;28;20033;-53
2021/11/30 05:27:42;;;;;;;16.55;7.97;;;;;;;;;;5048084;28;20035;-54
2021/11/30 05:30:09;;;;;;;16.08;7.38;;;;;;;;;;5054145;28;20021;-54
2021/11/30 05:32:35;;;;;;;19.67;7.30;;;;;;;;;;5045798;28;20112;-55
2021/11/30 05:35:01;;;;;;;12.15;6.40;;;;;;;;;;5054466;28;20497;-56
2021/11/30 05:37:27;;;;;;;15.60;6.05;;;;;;;;;;5049246;28;20030;-52
2021/11/30 05:39:53;;;;;;;13.63;7.20;;;;;;;;;;5055122;28;20453;-57
2021/11/30 05:42:19;;;;;;;14.77;6.97;;;;;;;;;;5050983;28;20087;-57
2021/11/30 05:44:45;;;;;;;13.82;6.35;;;;;;;;;;5040850;28;20044;-54
2021/11/30 05:47:11;;;;;;;14.38;6.70;;;;;;;;;;5045562;28;20147;-55
2021/11/30 05:49:37;;;;;;;14.07;6.45;;;;;;;;;;5051949;28;20120;-52
2021/11/30 05:52:03;;;;;;;15.13;7.07;;;;;;;;;;5054901;28;20032;-54
2021/11/30 05:54:29;;;;;;;16.55;7.57;;;;;;;;;;5049108;28;20116;-51
2021/11/30 05:56:55;;;;;;;15.32;6.10;;;;;;;;;;5052683;28;20108;-54
2021/11/30 05:59:21;;;;;;;14.05;6.35;;;;;;;;;;5050769;28;20543;-55
2021/11/30 06:01:47;;;;;;;16.27;7.00;;;;;;;;;;5048917;28;20048;-57
2021/11/30 06:04:13;;;;;;;13.88;6.13;;;;;;;;;;5050738;28;20061;-57
2021/11/30 06:06:39;;;;;;;16.02;6.75;;;;;;;;;;5051360;28;20112;-58
2021/11/30 06:09:07;;;;;;;12.85;6.20;;;;;;;;;;5049212;28;20036;-56
2021/11/30 06:11:33;;;;;;;12.48;6.03;;;;;;;;;;5050461;28;20025;-56
2021/11/30 06:14:00;;;;;;;11.07;5.72;;;;;;;;;;5050400;28;20028;-57
2021/11/30 06:16:26;;;;;;;13.10;6.38;;;;;;;;;;5049102;28;20381;-54
2021/11/30 06:18:52;;;;;;;13.77;6.25;;;;;;;;;;5046859;28;20048;-55
2021/11/30 06:21:19;;;;;;;10.80;6.00;;;;;;;;;;5041916;28;20103;-56
2021/11/30 06:23:47;;;;;;;14.38;6.80;;;;;;;;;;5044674;28;20032;-54
2021/11/30 06:26:13;;;;;;;11.10;5.13;;;;;;;;;;5046432;28;20040;-55
2021/11/30 06:28:39;;;;;;;14.05;6.72;;;;;;;;;;5048170;28;20037;-53
2021/11/30 06:31:06;;;;;;;12.35;5.57;;;;;;;;;;5052274;28;20115;-52
2021/11/30 06:33:32;;;;;;;12.15;5.70;;;;;;;;;;5046861;28;20087;-55
2021/11/30 06:35:58;;;;;;;17.83;7.57;;;;;;;;;;5050989;28;20049;-52
2021/11/30 06:38:24;;;;;;;14.57;6.57;;;;;;;;;;5048691;28;20103;-53
2021/11/30 06:40:50;;;;;;;11.45;5.60;;;;;;;;;;5053920;28;20037;-53
2021/11/30 06:43:16;;;;;;;11.55;5.13;;;;;;;;;;5046070;28;20033;-55
2021/11/30 06:45:42;;;;;;;11.10;5.68;;;;;;;;;;5051689;28;20021;-52
2021/11/30 06:48:08;;;;;;;11.75;5.35;;;;;;;;;;5052533;28;20451;-51
2021/11/30 06:50:34;;;;;;;11.50;5.72;;;;;;;;;;5046264;28;20438;-53
2021/11/30 06:53:00;;;;;;;11.07;6.05;;;;;;;;;;5054722;28;20033;-56
2021/11/30 06:55:26;;;;;;;13.02;6.22;;;;;;;;;;5042727;28;20546;-52
2021/11/30 06:57:52;;;;;;;13.98;5.90;;;;;;;;;;5047486;28;20037;-54
2021/11/30 07:00:22;;;;;;;12.70;5.95;;;;;;;;;;5040993;28;20485;-55
2021/11/30 07:02:50;;;;;;;10.38;5.47;;;;;;;;;;5046155;28;20108;-56
2021/11/30 07:05:19;;;;;;;10.65;4.80;;;;;;;;;;5047943;28;20044;-53
2021/11/30 07:15:04;;;;;;;11.07;5.10;;;;;;;;;;5043665;28;20033;-57
2021/11/30 07:17:31;;;;;;;13.40;5.57;;;;;;;;;;5050729;28;20029;-54
2021/11/30 07:19:58;;;;;;;16.90;6.32;;;;;;;;;;5047291;28;20026;-57
2021/11/30 07:22:24;;;;;;;13.18;5.13;;;;;;;;;;5050445;28;20086;-57
2021/11/30 07:24:50;;;;;;;9.38;4.72;;;;;;;;;;5045894;28;20545;-55
2021/11/30 07:27:16;;;;;;;10.23;4.85;;;;;;;;;;5047972;28;20380;-55
2021/11/30 07:29:42;;;;;;;9.40;4.28;;;;;;;;;;5045262;28;20477;-52
2021/11/30 07:32:08;;;;;;;8.07;4.43;;;;;;;;;;5049225;28;20067;-54
2021/11/30 07:34:34;;;;;;;9.15;4.63;;;;;;;;;;5043606;28;20035;-51
2021/11/30 07:37:00;;;;;;;8.15;4.68;;;;;;;;;;5048640;28;20112;-55
2021/11/30 07:39:26;;;;;;;10.55;4.88;;;;;;;;;;5045425;28;20361;-53
2021/11/30 07:41:52;;;;;;;9.35;4.63;;;;;;;;;;5047369;28;20470;-51
2021/11/30 07:44:18;;;;;;;11.45;4.88;;;;;;;;;;5043800;28;20508;-57
2021/11/30 07:46:45;;;;;;;7.95;3.95;;;;;;;;;;5044714;28;20037;-56
2021/11/30 07:49:12;;;;;;;8.10;4.32;;;;;;;;;;5049917;28;20033;-54
2021/11/30 07:51:38;;;;;;;8.27;4.32;;;;;;;;;;5048677;28;20067;-54
2021/11/30 07:54:04;;;;;;;10.40;4.30;;;;;;;;;;5045688;28;20033;-52
2021/11/30 07:56:32;;;;;;;10.93;4.60;;;;;;;;;;5040948;28;20032;-57
2021/11/30 07:58:58;;;;;;;7.30;4.32;;;;;;;;;;5040379;28;20098;-56
2021/11/30 08:01:24;;;;;;;9.45;4.78;;;;;;;;;;5045392;28;20477;-54
2021/11/30 08:03:50;;;;;;;8.25;4.57;;;;;;;;;;5044253;28;20072;-56
2021/11/30 08:06:16;;;;;;;9.38;5.10;;;;;;;;;;5044234;28;20037;-56
2021/11/30 08:08:42;;;;;;;11.77;4.50;;;;;;;;;;5042478;28;20036;-56
2021/11/30 08:11:08;;;;;;;9.35;4.50;;;;;;;;;;5049011;28;20095;-56
2021/11/30 08:13:35;;;;;;;7.55;4.72;;;;;;;;;;5044767;28;20033;-56
2021/11/30 08:16:01;;;;;;;8.80;4.78;;;;;;;;;;5041697;28;20024;-55
2021/11/30 08:18:27;;;;;;;9.02;4.28;;;;;;;;;;5046407;28;20029;-57
2021/11/30 08:20:53;;;;;;;9.40;4.75;;;;;;;;;;5045533;28;20480;-55
2021/11/30 08:23:19;;;;;;;8.13;4.47;;;;;;;;;;5053091;28;20430;-55
2021/11/30 08:25:45;;;;;;;8.65;4.38;;;;;;;;;;5052126;28;20025;-55
2021/11/30 08:28:11;;;;;;;8.15;4.70;;;;;;;;;;5048280;28;20032;-57
2021/11/30 08:30:37;;;;;;;8.40;4.93;;;;;;;;;;5051996;28;20044;-52
2021/11/30 08:33:03;;;;;;;10.82;4.65;;;;;;;;;;5049602;28;20089;-53
2021/11/30 08:35:30;;;;;;;7.57;3.92;;;;;;;;;;5051046;28;20077;-53
2021/11/30 08:37:56;;;;;;;7.57;4.18;;;;;;;;;;5051280;28;20103;-56
2021/11/30 08:40:22;;;;;;;7.65;4.43;;;;;;;;;;5049854;28;20029;-52
2021/11/30 08:42:48;;;;;;;8.32;4.03;;;;;;;;;;5052890;28;20032;-52
2021/11/30 08:45:14;;;;;;;7.75;4.28;;;;;;;;;;5054525;28;20025;-51
2021/11/30 08:47:40;;;;;;;6.57;4.13;;;;;;;;;;5050357;28;20104;-56
2021/11/30 08:50:08;;;;;;;7.75;4.30;;;;;;;;;;5048335;28;20142;-54
2021/11/30 08:52:34;;;;;;;9.82;4.32;;;;;;;;;;5051560;28;20025;-53
2021/11/30 08:55:00;;;;;;;6.00;3.50;;;;;;;;;;5053134;28;20480;-53
2021/11/30 08:57:26;;;;;;;7.35;4.63;;;;;;;;;;5048064;28;20026;-51
2021/11/30 08:59:52;;;;;;;7.93;4.13;;;;;;;;;;5050019;28;20030;-53
2021/11/30 09:02:20;;;;;;;6.78;3.80;;;;;;;;;;5051777;28;20021;-56
2021/11/30 09:04:46;;;;;;;5.90;3.28;;;;;;;;;;5048325;28;20032;-57
2021/11/30 09:07:15;;;;;;;5.88;3.42;;;;;;;;;;5056278;28;20116;-58
2021/11/30 09:09:41;;;;;;;6.72;3.45;;;;;;;;;;5046432;28;20032;-58
2021/11/30 09:12:08;;;;;;;7.35;4.30;;;;;;;;;;5055908;28;20045;-56
2021/11/30 09:14:34;;;;;;;7.15;4.60;;;;;;;;;;5047626;28;20091;-56
2021/11/30 09:17:00;;;;;;;6.13;3.67;;;;;;;;;;5058087;28;20024;-57
2021/11/30 09:19:26;;;;;;;6.90;4.13;;;;;;;;;;5044179;28;20091;-53
2021/11/30 09:21:52;;;;;;;7.55;4.07;;;;;;;;;;5064506;28;20479;-56
2021/11/30 09:24:18;;;;;;;5.55;3.38;;;;;;;;;;5052775;28;20104;-54
2021/11/30 09:26:44;;;;;;;7.28;3.90;;;;;;;;;;5051092;28;20210;-53
2021/11/30 09:29:11;;;;;;;4.80;3.38;;;;;;;;;;5052122;28;20025;-51
2021/11/30 09:31:37;;;;;;;5.07;3.60;;;;;;;;;;5053019;28;20115;-53
2021/11/30 09:34:04;;;;;;;6.03;3.78;;;;;;;;;;5040254;28;20155;-52
2021/11/30 09:36:34;;;;;;;5.80;3.42;;;;;;;;;;5054280;28;20045;-55
2021/11/30 09:39:01;;;;;;;5.30;3.20;;;;;;;;;;5053346;28;20028;-56
2021/11/30 09:41:28;;;;;;;6.68;3.67;;;;;;;;;;5052137;28;20021;-53
2021/11/30 09:43:55;;;;;;;5.85;3.17;;;;;;;;;;5048035;28;20398;-51
2021/11/30 09:46:21;;;;;;;5.05;3.20;;;;;;;;;;5052959;28;20369;-56
2021/11/30 09:48:47;;;;;;;5.60;3.38;;;;;;;;;;5053341;28;20116;-51
2021/11/30 09:51:13;;;;;;;4.72;3.25;;;;;;;;;;5053840;28;20465;-51
2021/11/30 09:53:39;;;;;;;6.82;3.70;;;;;;;;;;5053392;28;20021;-52
2021/11/30 09:56:05;;;;;;;4.90;2.83;;;;;;;;;;5052834;28;20428;-51
2021/11/30 09:58:32;;;;;;;4.75;3.10;;;;;;;;;;5053073;28;20144;-53
2021/11/30 10:00:58;;;;;;;4.50;3.00;;;;;;;;;;5047958;28;20100;-55
2021/11/30 10:03:25;;;;;;;4.65;2.88;;;;;;;;;;5053191;28;20159;-56
2021/11/30 10:05:52;;;;;;;4.53;2.80;;;;;;;;;;5049118;28;20138;-56
2021/11/30 10:08:32;;;;;;;9.15;3.40;;;;;;;;;;5051318;28;20029;-57
2021/11/30 10:10:59;;;;;;;5.80;3.00;;;;;;;;;;5051192;28;20075;-55
2021/11/30 10:13:25;;;;;;;4.57;3.08;;;;;;;;;;5048778;28;20028;-56
2021/11/30 10:15:57;;;;;;;4.15;3.20;;;;;;;;;;5047466;28;20691;-56
2021/11/30 10:18:24;;;;;;;3.70;2.75;;;;;;;;;;5052329;28;20108;-55
2021/11/30 10:20:52;;;;;;;7.78;2.70;;;;;;;;;;5048326;28;20048;-58
2021/11/30 10:23:18;;;;;;;4.78;2.75;;;;;;;;;;5051953;28;20029;-56
2021/11/30 10:25:46;;;;;;;4.07;3.10;;;;;;;;;;5051724;28;20048;-57
2021/11/30 10:28:15;;;;;;;3.92;2.78;;;;;;;;;;5050612;28;20032;-54
2021/11/30 10:30:45;;;;;;;3.42;2.53;;;;;;;;;;5052693;28;20029;-53
2021/11/30 10:33:16;;;;;;;4.05;2.85;;;;;;;;;;5049911;28;20044;-55
2021/11/30 10:35:42;;;;;;;3.78;2.75;;;;;;;;;;5050892;28;20048;-53
2021/11/30 10:38:08;;;;;;;4.45;2.83;;;;;;;;;;5057027;28;20414;-55
2021/11/30 10:40:36;;;;;;;4.50;2.80;;;;;;;;;;5052721;28;20111;-56
2021/11/30 10:43:03;;;;;;;4.38;3.05;;;;;;;;;;5057069;28;20532;-57
2021/11/30 10:45:31;;;;;;;5.38;2.90;;;;;;;;;;5049500;28;20104;-55
2021/11/30 10:48:01;;;;;;;3.85;2.45;;;;;;;;;;5059053;28;20123;-57
2021/11/30 10:50:32;;;;;;;3.45;2.28;;;;;;;;;;5048344;28;20041;-54
2021/11/30 10:53:00;;;;;;;4.03;2.63;;;;;;;;;;5046890;28;20043;-53
2021/11/30 10:55:26;;;;;;;3.33;2.28;;;;;;;;;;5057084;28;20074;-53
2021/11/30 10:57:52;;;;;;;4.55;2.60;;;;;;;;;;5060395;28;20478;-54
2021/11/30 11:00:29;;;;;;;4.15;2.55;;;;;;;;;;5058158;28;20096;-53
2021/11/30 11:03:01;;;;;;;3.33;2.30;;;;;;;;;;5048692;28;20635;-52
2021/11/30 11:05:29;;;;;;;3.55;2.00;;;;;;;;;;5056070;28;20060;-52
2021/11/30 11:08:14;;;;;;;2.33;2.00;;;;;;;;;;5059892;28;20310;-52
2021/11/30 11:10:50;;;;;;;3.75;1.90;;;;;;;;;;5064303;28;20047;-52
2021/11/30 11:13:27;;;;;;;2.28;2.00;;;;;;;;;;5051863;28;20029;-56
2021/11/30 11:15:54;;;;;;;3.22;1.70;;;;;;;;;;5058110;28;20080;-55
2021/11/30 11:18:24;;;;;;;1.95;1.60;;;;;;;;;;5059118;28;20051;-52
2021/11/30 11:20:52;;;;;;;2.53;1.65;;;;;;;;;;5052900;28;20013;-51
2021/11/30 11:23:25;;;;;;;1.60;1.50;;;;;;;;;;5050367;28;20048;-53
2021/11/30 11:25:53;;;;;;;2.47;1.85;;;;;;;;;;5058761;28;20072;-53
2021/11/30 11:28:23;;;;;;;2.47;1.42;;;;;;;;;;5051898;28;20366;-51
2021/11/30 11:30:50;;;;;;;1.83;1.50;;;;;;;;;;5052838;28;20384;-53
2021/11/30 11:33:16;;;;;;;2.47;1.58;;;;;;;;;;5053139;28;20021;-53
2021/11/30 11:35:43;;;;;;;2.85;1.70;;;;;;;;;;5054589;28;20171;-54
2021/11/30 11:38:10;;;;;;;2.35;1.45;;;;;;;;;;5053441;28;20388;-57
2021/11/30 11:40:36;;;;;;;2.20;1.42;;;;;;;;;;5055679;28;20021;-56
2021/11/30 11:43:02;;;;;;;1.98;1.23;;;;;;;;;;5053363;28;20025;-52
2021/11/30 11:45:28;;;;;;;4.60;1.58;;;;;;;;;;5053779;28;20025;-54
2021/11/30 11:48:02;;;;;;;3.13;1.50;;;;;;;;;;5055699;28;20408;-57
2021/11/30 11:50:38;;;;;;;3.38;1.40;;;;;;;;;;5060402;28;20154;-54
2021/11/30 11:53:20;;;;;;;3.05;1.60;;;;;;;;;;5056289;28;20137;-55
2021/11/30 11:56:06;;;;;;;3.55;1.50;;;;;;;;;;5055413;28;20447;-53
2021/11/30 11:58:32;;;;;;;4.35;1.45;;;;;;;;;;5043636;28;20037;-53
2021/11/30 12:01:01;;;;;;;2.10;1.40;;;;;;;;;;5050582;28;20361;-53
2021/11/30 12:03:48;;;;;;;7.47;1.60;;;;;;;;;;5041754;28;20059;-51
2021/11/30 12:06:22;;;;;;;2.95;1.45;;;;;;;;;;5040849;28;20467;-53
2021/11/30 12:09:12;;;;;;;4.45;1.48;;;;;;;;;;5054964;28;20021;-55
2021/11/30 12:11:42;;;;;;;4.00;1.42;;;;;;;;;;5049718;28;20029;-55
2021/11/30 12:14:22;;;;;;;3.58;1.13;;;;;;;;;;5053367;28;20092;-54
2021/11/30 12:17:07;;;;;;;7.18;1.33;;;;;;;;;;5048794;28;20078;-55
2021/11/30 12:19:53;;;;;;;4.68;1.58;;;;;;;;;;5053175;28;20528;-55
2021/11/30 12:22:38;;;;;;;5.70;1.20;;;;;;;;;;5044805;28;20071;-52
2021/11/30 12:25:04;;;;;;;6.03;1.50;;;;;;;;;;5058400;28;20116;-54
2021/11/30 12:27:30;;;;;;;3.80;1.02;;;;;;;;;;5051152;28;20025;-54
2021/11/30 12:29:56;;;;;;;3.55;1.15;;;;;;;;;;5049967;28;20079;-54
2021/11/30 12:32:31;;;;;;;5.18;1.35;;;;;;;;;;5052493;28;20079;-56
2021/11/30 12:34:59;;;;;;;5.65;1.35;;;;;;;;;;5045865;28;20044;-52
2021/11/30 12:37:27;;;;;;;3.30;0.88;;;;;;;;;;5040994;28;20473;-52
2021/11/30 12:40:02;;;;;;;7.63;1.30;;;;;;;;;;5041697;28;20029;-57
2021/11/30 12:42:28;;;;;;;2.17;0.90;;;;;;;;;;5039745;28;20083;-52
2021/11/30 12:44:56;;;;;;;4.68;1.23;;;;;;;;;;5041644;28;20052;-55
2021/11/30 12:47:26;;;;;;;7.20;2.13;;;;;;;;;;5050946;28;20025;-55
2021/11/30 12:49:53;;;;;;;3.85;1.15;;;;;;;;;;5053590;28;20043;-57
2021/11/30 12:52:32;;;;;;;3.63;0.80;;;;;;;;;;5043237;28;20029;-52
2021/11/30 12:55:01;;;;;;;9.18;1.13;;;;;;;;;;5049912;28;20032;-53
2021/11/30 12:57:33;;;;;;;11.70;1.17;;;;;;;;;;5054659;28;20112;-53
2021/11/30 13:00:08;;;;;;;7.70;1.25;;;;;;;;;;5047907;28;20020;-53
2021/11/30 13:02:36;;;;;;;12.05;1.80;;;;;;;;;;5058620;28;20028;-54
2021/11/30 13:05:08;;;;;;;2.65;1.20;;;;;;;;;;5053289;28;20033;-54
2021/11/30 13:07:36;;;;;;;5.75;1.48;;;;;;;;;;5046201;28;20056;-57
2021/11/30 13:10:03;;;;;;;7.15;1.80;;;;;;;;;;5049533;28;20044;-54
2021/11/30 13:12:30;;;;;;;8.35;1.27;;;;;;;;;;5057033;28;20462;-57
2021/11/30 13:14:56;;;;;;;12.40;1.83;;;;;;;;;;5048798;28;20026;-55
2021/11/30 13:17:27;;;;;;;6.50;1.50;;;;;;;;;;5054010;28;20029;-56
2021/11/30 13:19:53;;;;;;;8.80;1.58;;;;;;;;;;5044358;28;20021;-53
2021/11/30 13:22:19;;;;;;;11.43;1.52;;;;;;;;;;5053106;28;20499;-52
2021/11/30 13:24:50;;;;;;;6.38;1.10;;;;;;;;;;5050858;28;20083;-51
2021/11/30 13:27:18;;;;;;;8.10;1.20;;;;;;;;;;5051444;28;20051;-54
2021/11/30 13:29:55;;;;;;;6.80;1.25;;;;;;;;;;5053285;28;20078;-52
2021/11/30 13:32:25;;;;;;;6.53;1.38;;;;;;;;;;5051219;28;20032;-57
2021/11/30 13:35:11;;;;;;;8.05;1.30;;;;;;;;;;5053472;28;20061;-51
2021/11/30 13:37:39;;;;;;;4.95;1.00;;;;;;;;;;5053432;28;20035;-57
2021/11/30 13:40:09;;;;;;;8.32;1.30;;;;;;;;;;5051571;28;20106;-55
2021/11/30 13:42:46;;;;;;;9.00;1.00;;;;;;;;;;5057838;28;20036;-57
2021/11/30 13:45:12;;;;;;;9.23;1.48;;;;;;;;;;5047111;28;20025;-54
2021/11/30 13:47:45;;;;;;;8.20;1.45;;;;;;;;;;5059555;28;20548;-53
2021/11/30 13:50:11;;;;;;;4.10;1.25;;;;;;;;;;5053432;28;20025;-53
2021/11/30 13:52:37;;;;;;;3.28;1.17;;;;;;;;;;5061800;28;20033;-54
2021/11/30 13:55:04;;;;;;;3.28;1.27;;;;;;;;;;5058647;28;20484;-53
2021/11/30 13:57:33;;;;;;;6.32;1.45;;;;;;;;;;5063568;28;20025;-53
2021/11/30 14:00:01;;;;;;;7.38;1.05;;;;;;;;;;5052404;28;20025;-52
2021/11/30 14:02:35;;;;;;;8.27;1.42;;;;;;;;;;5066244;28;20029;-52
2021/11/30 14:05:01;;;;;;;8.10;1.38;;;;;;;;;;5048546;28;20368;-52
2021/11/30 14:07:29;;;;;;;14.38;1.38;;;;;;;;;;5058724;28;20111;-56
2021/11/30 14:09:59;;;;;;;8.00;1.25;;;;;;;;;;5060815;28;20037;-57
2021/11/30 14:12:25;;;;;;;7.05;1.00;;;;;;;;;;5067766;28;20024;-56
2021/11/30 14:14:52;;;;;;;5.80;1.30;;;;;;;;;;5061046;28;20361;-56
2021/11/30 14:17:20;;;;;;;9.52;1.80;;;;;;;;;;5052850;28;20033;-57
2021/11/30 14:19:46;;;;;;;9.25;2.00;;;;;;;;;;5049444;28;20067;-56
2021/11/30 14:22:14;;;;;;;5.95;1.60;;;;;;;;;;5048761;28;20465;-57
2021/11/30 14:24:49;;;;;;;13.77;1.98;;;;;;;;;;5046355;28;20458;-57
2021/11/30 14:27:15;;;;;;;9.25;1.85;;;;;;;;;;5039230;28;20056;-54
2021/11/30 14:29:43;;;;;;;6.85;1.30;;;;;;;;;;5040581;28;20052;-54
2021/11/30 14:32:12;;;;;;;8.93;1.58;;;;;;;;;;5051165;28;20028;-54
2021/11/30 14:34:40;;;;;;;12.45;2.25;;;;;;;;;;5049404;28;20040;-52
2021/11/30 14:37:21;;;;;;;6.40;2.30;;;;;;;;;;5053028;28;20020;-54
2021/11/30 14:39:48;;;;;;;9.18;1.30;;;;;;;;;;5051860;28;20033;-56
2021/11/30 14:42:24;;;;;;;8.18;2.10;;;;;;;;;;5052574;28;20016;-54
2021/11/30 14:44:50;;;;;;;10.07;1.80;;;;;;;;;;5051328;28;20063;-57
2021/11/30 14:47:16;;;;;;;8.00;1.27;;;;;;;;;;5051960;28;20095;-56
2021/11/30 14:49:52;;;;;;;8.25;1.58;;;;;;;;;;5050325;28;20127;-52
2021/11/30 14:52:19;;;;;;;4.30;1.10;;;;;;;;;;5050748;28;20145;-56